createdAt,value
2023-04-14T00:00:19.951Z,1.73
2023-04-14T00:02:48.167Z,2.00
2023-04-14T00:05:17.781Z,1.40
2023-04-14T00:07:46.030Z,2.33
2023-04-14T00:10:14.180Z,1.70
2023-04-14T00:12:42.397Z,2.00
2023-04-14T00:15:11.064Z,1.63
2023-04-14T00:17:39.264Z,1.60
2023-04-14T00:20:09.815Z,1.87
2023-04-14T00:22:39.324Z,1.73
2023-04-14T00:25:07.916Z,1.73
2023-04-14T00:27:36.112Z,1.77
2023-04-14T00:30:04.306Z,1.50
2023-04-14T00:32:32.578Z,1.57
2023-04-14T00:35:03.230Z,1.50
2023-04-14T00:37:31.512Z,1.60
2023-04-14T00:40:01.194Z,1.77
2023-04-14T00:42:29.376Z,1.80
2023-04-14T00:44:57.642Z,1.47
2023-04-14T00:47:25.881Z,1.47
2023-04-14T00:49:54.192Z,1.90
2023-04-14T00:52:24.286Z,2.03
2023-04-14T00:54:52.574Z,1.70
2023-04-14T00:57:22.111Z,2.00
2023-04-14T00:59:50.319Z,2.00
2023-04-14T01:02:18.532Z,2.10
2023-04-14T01:04:54.327Z,1.70
2023-04-14T01:07:23.896Z,2.17
2023-04-14T01:09:52.492Z,1.93
2023-04-14T01:12:28.160Z,1.80
2023-04-14T01:14:58.896Z,1.83
2023-04-14T01:17:29.892Z,1.73
2023-04-14T01:20:08.924Z,1.67
2023-04-14T01:22:39.369Z,1.93
2023-04-14T01:25:23.174Z,1.90
2023-04-14T01:27:58.980Z,1.80
2023-04-14T01:30:37.126Z,1.60
2023-04-14T01:33:08.723Z,2.50
2023-04-14T01:35:38.842Z,1.37
2023-04-14T01:38:10.465Z,1.67
2023-04-14T01:40:39.722Z,1.90
2023-04-14T01:43:13.060Z,1.80
2023-04-14T01:45:43.510Z,1.77
2023-04-14T01:48:13.348Z,1.90
2023-04-14T01:50:42.798Z,1.70
2023-04-14T01:53:12.576Z,1.70
2023-04-14T01:55:44.048Z,1.67
2023-04-14T01:58:12.675Z,2.07
2023-04-14T02:00:42.219Z,2.07
2023-04-14T02:03:10.693Z,1.43
2023-04-14T02:05:42.275Z,1.90
2023-04-14T02:08:12.569Z,1.67
2023-04-14T02:10:42.289Z,3.10
2023-04-14T02:13:12.044Z,1.80
2023-04-14T02:15:40.564Z,2.40
2023-04-14T02:18:09.081Z,1.90
2023-04-14T02:20:38.733Z,1.63
2023-04-14T02:23:08.235Z,1.50
2023-04-14T02:25:37.002Z,1.63
2023-04-14T02:28:07.116Z,1.60
2023-04-14T02:30:37.112Z,1.90
2023-04-14T02:33:07.188Z,1.77
2023-04-14T02:35:40.201Z,1.70
2023-04-14T02:38:12.042Z,1.93
2023-04-14T02:40:42.674Z,1.80
2023-04-14T02:43:13.667Z,1.70
2023-04-14T02:45:43.930Z,1.70
2023-04-14T02:48:14.774Z,1.83
2023-04-14T02:50:44.640Z,1.50
2023-04-14T02:53:14.850Z,1.70
2023-04-14T02:55:43.616Z,1.97
2023-04-14T02:58:12.057Z,1.80
2023-04-14T03:00:41.727Z,2.07
2023-04-14T03:03:11.115Z,2.27
2023-04-14T03:05:40.308Z,2.10
2023-04-14T03:08:09.055Z,2.27
2023-04-14T03:10:39.009Z,1.90
2023-04-14T03:13:08.424Z,1.93
2023-04-14T03:15:37.520Z,1.90
2023-04-14T03:18:06.290Z,1.70
2023-04-14T03:20:35.939Z,1.60
2023-04-14T03:23:05.990Z,2.10
2023-04-14T03:25:37.856Z,2.00
2023-04-14T03:28:10.601Z,1.60
2023-04-14T03:30:40.697Z,1.73
2023-04-14T03:33:11.806Z,2.50
2023-04-14T03:35:40.244Z,2.17
2023-04-14T03:38:11.007Z,2.40
2023-04-14T03:40:41.219Z,1.80
2023-04-14T03:43:12.346Z,1.87
2023-04-14T03:45:41.357Z,1.77
2023-04-14T03:48:11.832Z,1.73
2023-04-14T03:50:42.167Z,1.83
2023-04-14T03:53:12.438Z,1.77
2023-04-14T03:55:42.285Z,1.90
2023-04-14T03:58:12.691Z,1.90
2023-04-14T04:00:41.297Z,1.50
2023-04-14T04:03:10.456Z,2.33
2023-04-14T04:05:40.406Z,1.40
2023-04-14T04:08:09.923Z,1.70
2023-04-14T04:10:39.477Z,2.20
2023-04-14T04:13:09.358Z,1.70
2023-04-14T04:15:39.689Z,2.10
2023-04-14T04:18:08.722Z,2.10
2023-04-14T04:20:38.568Z,2.00
2023-04-14T04:23:08.322Z,1.63
2023-04-14T04:25:37.879Z,1.93
2023-04-14T04:28:06.483Z,1.90
2023-04-14T04:30:35.523Z,1.80
2023-04-14T04:33:05.391Z,2.10
2023-04-14T04:35:33.925Z,1.80
2023-04-14T04:38:02.073Z,1.90
2023-04-14T04:40:30.900Z,1.60
2023-04-14T04:42:59.045Z,1.73
2023-04-14T04:45:37.586Z,1.80
2023-04-14T04:48:07.551Z,1.70
2023-04-14T04:50:35.714Z,1.80
2023-04-14T04:53:03.865Z,2.13
2023-04-14T04:55:32.037Z,1.60
2023-04-14T04:58:00.375Z,2.07
2023-04-14T05:00:28.549Z,1.87
2023-04-14T05:02:57.149Z,2.00
2023-04-14T05:05:27.299Z,1.90
2023-04-14T05:07:55.454Z,1.90
2023-04-14T05:10:23.827Z,1.93
2023-04-14T05:12:51.996Z,2.17
2023-04-14T05:15:20.388Z,2.20
2023-04-14T05:17:48.581Z,1.90
2023-04-14T05:20:16.850Z,2.07
2023-04-14T05:22:46.822Z,2.30
2023-04-14T05:25:15.343Z,2.03
2023-04-14T05:27:43.553Z,2.00
2023-04-14T05:30:12.339Z,2.47
2023-04-14T05:32:40.537Z,1.97
2023-04-14T05:35:09.000Z,2.07
2023-04-14T05:37:37.171Z,2.30
2023-04-14T05:40:07.407Z,2.27
2023-04-14T05:42:35.607Z,2.03
2023-04-14T05:45:04.127Z,2.00
2023-04-14T05:47:32.939Z,2.07
2023-04-14T05:50:03.731Z,1.80
2023-04-14T05:52:32.096Z,1.93
2023-04-14T05:55:00.222Z,2.13
2023-04-14T05:57:29.722Z,1.90
2023-04-14T05:59:58.434Z,1.70
2023-04-14T06:02:26.799Z,1.87
2023-04-14T06:04:55.197Z,1.63
2023-04-14T06:07:24.164Z,1.40
2023-04-14T06:09:52.379Z,1.60
2023-04-14T06:12:20.548Z,1.80
2023-04-14T06:14:50.197Z,2.03
2023-04-14T06:17:18.546Z,1.27
2023-04-14T06:19:48.262Z,1.40
2023-04-14T06:22:19.191Z,1.90
2023-04-14T06:24:47.333Z,1.80
2023-04-14T06:27:15.689Z,1.60
2023-04-14T06:29:43.960Z,1.33
2023-04-14T06:32:13.606Z,1.80
2023-04-14T06:34:41.966Z,1.97
2023-04-14T06:37:10.401Z,1.70
2023-04-14T06:39:38.592Z,1.50
2023-04-14T06:42:06.748Z,1.40
2023-04-14T06:44:34.907Z,1.60
2023-04-14T06:47:03.080Z,1.60
2023-04-14T06:49:32.564Z,1.67
2023-04-14T06:52:00.747Z,1.50
2023-04-14T06:54:31.730Z,1.70
2023-04-14T06:57:01.083Z,2.10
2023-04-14T06:59:29.665Z,1.50
2023-04-14T07:01:58.801Z,1.80
2023-04-14T07:04:27.195Z,1.53
2023-04-14T07:07:00.209Z,1.80
2023-04-14T07:09:28.538Z,1.70
2023-04-14T07:11:57.086Z,1.40
2023-04-14T07:14:25.271Z,1.37
2023-04-14T07:16:54.009Z,1.30
2023-04-14T07:19:22.243Z,1.20
2023-04-14T07:21:50.399Z,1.50
2023-04-14T07:24:19.917Z,1.37
2023-04-14T07:26:48.074Z,1.57
2023-04-14T07:29:16.660Z,1.80
2023-04-14T07:31:44.887Z,1.60
2023-04-14T07:34:13.124Z,1.40
2023-04-14T07:36:41.452Z,1.20
2023-04-14T07:39:09.624Z,1.20
2023-04-14T07:41:39.184Z,1.40
2023-04-14T07:44:07.515Z,1.50
2023-04-14T07:46:35.757Z,1.40
2023-04-14T07:49:04.024Z,1.33
2023-04-14T07:51:32.862Z,1.60
2023-04-14T07:54:01.446Z,1.30
2023-04-14T07:56:29.872Z,1.60
2023-04-14T07:58:59.590Z,1.40
2023-04-14T08:01:28.527Z,1.50
2023-04-14T08:03:56.980Z,1.40
2023-04-14T08:06:28.023Z,1.50
2023-04-14T08:08:56.203Z,1.90
2023-04-14T08:11:24.395Z,1.73
2023-04-14T08:13:53.235Z,1.53
2023-04-14T08:16:22.947Z,1.73
2023-04-14T08:18:51.199Z,1.50
2023-04-14T08:21:19.381Z,0.87
2023-04-14T08:23:47.576Z,1.30
2023-04-14T08:26:15.723Z,1.20
2023-04-14T08:28:43.879Z,1.20
2023-04-14T08:31:12.367Z,1.50
2023-04-14T08:33:41.957Z,1.43
2023-04-14T08:36:10.262Z,1.20
2023-04-14T08:38:38.529Z,1.50
2023-04-14T08:41:09.456Z,1.20
2023-04-14T08:43:37.768Z,1.40
2023-04-14T08:46:07.186Z,1.20
2023-04-14T08:48:37.342Z,1.50
2023-04-14T08:51:08.900Z,1.20
2023-04-14T08:53:42.783Z,1.30
2023-04-14T08:56:12.661Z,1.10
2023-04-14T08:58:41.762Z,1.50
2023-04-14T09:01:10.342Z,1.37
2023-04-14T09:03:39.232Z,1.53
2023-04-14T09:06:09.125Z,1.30
2023-04-14T09:08:38.038Z,1.10
2023-04-14T09:11:06.395Z,1.17
2023-04-14T09:13:34.860Z,1.60
2023-04-14T09:16:03.481Z,1.20
2023-04-14T09:18:34.869Z,1.20
2023-04-14T09:21:32.954Z,1.30
2023-04-14T09:23:54.367Z,1.00
2023-04-14T09:26:22.597Z,1.40
2023-04-14T09:28:52.335Z,1.07
2023-04-14T09:31:21.316Z,1.27
2023-04-14T09:33:51.173Z,1.27
2023-04-14T09:36:20.539Z,1.40
2023-04-14T09:38:49.709Z,1.70
2023-04-14T09:41:19.493Z,1.20
2023-04-14T09:43:47.696Z,1.13
2023-04-14T09:46:16.483Z,1.20
2023-04-14T09:48:55.288Z,1.13
2023-04-14T09:51:24.084Z,1.20
2023-04-14T09:53:54.452Z,1.20
2023-04-14T09:56:28.103Z,1.10
2023-04-14T09:58:58.861Z,1.20
2023-04-14T10:01:29.730Z,1.10
2023-04-14T10:03:58.041Z,1.40
2023-04-14T10:06:26.758Z,1.40
2023-04-14T10:08:55.991Z,1.00
2023-04-14T10:11:26.131Z,1.10
2023-04-14T10:13:55.136Z,0.87
2023-04-14T10:16:23.526Z,1.00
2023-04-14T10:18:52.404Z,1.20
2023-04-14T10:21:22.429Z,1.17
2023-04-14T10:23:51.021Z,1.17
2023-04-14T10:26:21.800Z,1.07
2023-04-14T10:28:52.197Z,1.07
2023-04-14T10:31:22.419Z,1.13
2023-04-14T10:33:50.781Z,1.10
2023-04-14T10:36:25.460Z,0.90
2023-04-14T10:39:00.088Z,1.20
2023-04-14T10:41:28.694Z,1.37
2023-04-14T10:43:58.391Z,1.17
2023-04-14T10:46:26.553Z,1.00
2023-04-14T10:48:55.269Z,1.00
2023-04-14T10:51:35.803Z,1.20
2023-04-14T10:54:04.745Z,1.37
2023-04-14T10:56:32.920Z,1.03
2023-04-14T10:59:04.130Z,1.00
2023-04-14T11:01:33.134Z,1.17
2023-04-14T11:04:13.311Z,0.93
2023-04-14T11:06:52.218Z,1.10
2023-04-14T11:09:27.519Z,1.10
2023-04-14T11:11:57.570Z,1.00
2023-04-14T11:14:31.826Z,0.80
2023-04-14T11:17:04.101Z,0.93
2023-04-14T11:19:33.417Z,1.00
2023-04-14T11:22:01.757Z,0.80
2023-04-14T11:24:30.091Z,0.77
2023-04-14T11:26:59.880Z,0.90
2023-04-14T11:29:28.060Z,1.00
2023-04-14T11:32:07.519Z,0.90
2023-04-14T11:34:35.796Z,1.00
2023-04-14T11:37:05.079Z,1.23
2023-04-14T11:39:35.495Z,0.90
2023-04-14T11:42:03.750Z,1.03
2023-04-14T11:44:32.001Z,1.00
2023-04-14T11:47:00.175Z,0.80
2023-04-14T11:49:36.184Z,1.10
2023-04-14T11:52:08.457Z,1.30
2023-04-14T11:54:37.555Z,1.30
2023-04-14T11:57:10.902Z,1.10
2023-04-14T11:59:45.695Z,1.00
2023-04-14T12:02:17.087Z,1.30
2023-04-14T12:04:48.579Z,1.00
2023-04-14T12:07:19.642Z,1.13
2023-04-14T12:09:48.780Z,1.33
2023-04-14T12:12:18.349Z,1.17
2023-04-14T12:14:47.381Z,0.90
2023-04-14T12:17:16.199Z,1.10
2023-04-14T12:19:44.468Z,0.83
2023-04-14T12:22:14.665Z,0.80
2023-04-14T12:24:43.404Z,0.90
2023-04-14T12:27:11.873Z,0.87
2023-04-14T12:29:41.827Z,0.97
2023-04-14T12:32:12.054Z,1.10
2023-04-14T12:34:40.394Z,1.30
2023-04-14T12:37:09.617Z,0.90
2023-04-14T12:39:51.743Z,1.23
2023-04-14T12:42:20.144Z,1.20
2023-04-14T12:44:58.731Z,1.87
2023-04-14T12:47:30.777Z,1.13
2023-04-14T12:50:00.217Z,1.10
2023-04-14T12:52:35.105Z,0.87
2023-04-14T12:55:04.759Z,1.07
2023-04-14T12:57:33.621Z,1.47
2023-04-14T13:00:02.121Z,0.90
2023-04-14T13:02:30.876Z,0.80
2023-04-14T13:04:59.226Z,1.00
2023-04-14T13:07:27.402Z,1.03
2023-04-14T13:09:55.701Z,0.97
2023-04-14T13:12:25.219Z,1.07
2023-04-14T13:14:54.166Z,0.90
2023-04-14T13:17:22.493Z,1.10
2023-04-14T13:19:50.793Z,1.20
2023-04-14T13:22:19.035Z,1.03
2023-04-14T13:24:47.206Z,0.93
2023-04-14T13:27:15.536Z,1.00
2023-04-14T13:29:45.357Z,1.03
2023-04-14T13:32:13.984Z,1.23
2023-04-14T13:34:43.189Z,1.10
2023-04-14T13:37:11.364Z,0.80
2023-04-14T13:39:39.564Z,0.87
2023-04-14T13:42:07.733Z,0.93
2023-04-14T13:44:36.886Z,1.07
2023-04-14T13:47:06.422Z,0.90
2023-04-14T13:49:34.609Z,1.07
2023-04-14T13:52:02.778Z,1.00
2023-04-14T13:54:30.937Z,0.90
2023-04-14T13:56:59.084Z,0.80
2023-04-14T13:59:27.439Z,0.90
2023-04-14T14:01:55.776Z,1.10
2023-04-14T14:04:25.498Z,0.83
2023-04-14T14:06:53.730Z,0.80
2023-04-14T14:09:22.134Z,0.80
2023-04-14T14:11:50.459Z,0.90
2023-04-14T14:14:18.802Z,0.70
2023-04-14T14:16:47.018Z,1.00
2023-04-14T14:19:17.121Z,0.90
2023-04-14T14:21:46.830Z,0.90
2023-04-14T14:24:15.065Z,0.60
2023-04-14T14:26:43.319Z,1.10
2023-04-14T14:29:11.485Z,0.90
2023-04-14T14:31:39.671Z,1.00
2023-04-14T14:34:07.891Z,0.80
2023-04-14T14:36:36.032Z,0.90
2023-04-14T14:39:05.906Z,0.90
2023-04-14T14:41:34.058Z,1.10
2023-04-14T14:44:02.363Z,0.90
2023-04-14T14:46:30.738Z,0.90
2023-04-14T14:48:59.034Z,0.97
2023-04-14T14:51:27.648Z,1.03
2023-04-14T14:54:08.425Z,0.70
2023-04-14T14:56:39.212Z,1.00
2023-04-14T14:59:08.341Z,0.87
2023-04-14T15:01:36.678Z,0.80
2023-04-14T15:04:06.329Z,0.90
2023-04-14T15:06:36.010Z,1.00
2023-04-14T15:09:05.806Z,0.87
2023-04-14T15:11:34.011Z,0.77
2023-04-14T15:14:03.818Z,0.90
2023-04-14T15:16:32.191Z,0.80
2023-04-14T15:19:00.431Z,1.17
2023-04-14T15:21:28.890Z,1.13
2023-04-14T15:23:57.077Z,0.90
2023-04-14T15:26:25.681Z,0.97
2023-04-14T15:28:54.206Z,1.33
2023-04-14T15:31:23.798Z,1.10
2023-04-14T15:33:52.005Z,1.13
2023-04-14T15:36:20.177Z,1.30
2023-04-14T15:38:50.041Z,1.37
2023-04-14T15:41:18.244Z,1.30
2023-04-14T15:43:47.210Z,1.10
2023-04-14T15:46:16.096Z,1.37
2023-04-14T15:48:45.722Z,1.30
2023-04-14T15:51:13.877Z,1.20
2023-04-14T15:53:42.041Z,1.30
2023-04-14T15:56:10.241Z,1.57
2023-04-14T15:58:38.397Z,1.13
2023-04-14T16:01:08.275Z,1.00
2023-04-14T16:03:37.972Z,1.03
2023-04-14T16:06:08.118Z,1.03
2023-04-14T16:08:36.368Z,1.57
2023-04-14T16:11:04.900Z,1.23
2023-04-14T16:13:33.097Z,1.47
2023-04-14T16:16:01.522Z,1.43
2023-04-14T16:18:29.734Z,1.20
2023-04-14T16:20:57.894Z,1.40
2023-04-14T16:23:29.034Z,1.13
2023-04-14T16:25:57.552Z,1.57
2023-04-14T16:28:25.802Z,1.37
2023-04-14T16:30:55.089Z,1.30
2023-04-14T16:33:23.351Z,1.20
2023-04-14T16:35:51.619Z,1.27
2023-04-14T16:38:19.778Z,1.40
2023-04-14T16:40:56.218Z,1.00
2023-04-14T16:43:24.680Z,1.50
2023-04-14T16:45:53.065Z,1.67
2023-04-14T16:48:21.417Z,1.20
2023-04-14T16:50:49.581Z,1.20
2023-04-14T16:53:17.898Z,1.40
2023-04-14T16:55:46.220Z,1.20
2023-04-14T16:58:15.804Z,1.43
2023-04-14T17:00:43.958Z,1.17
2023-04-14T17:03:12.397Z,1.23
2023-04-14T17:05:40.874Z,1.40
2023-04-14T17:08:09.007Z,1.17
2023-04-14T17:10:38.626Z,0.97
2023-04-14T17:13:06.884Z,0.90
2023-04-14T17:15:36.427Z,1.00
2023-04-14T17:18:04.924Z,0.77
2023-04-14T17:20:33.161Z,1.10
2023-04-14T17:23:01.343Z,1.20
2023-04-14T17:25:29.504Z,0.97
2023-04-14T17:27:58.029Z,0.83
2023-04-14T17:30:27.134Z,1.07
2023-04-14T17:32:56.773Z,1.17
2023-04-14T17:35:25.009Z,1.33
2023-04-14T17:37:53.514Z,1.70
2023-04-14T17:40:22.242Z,1.10
2023-04-14T17:42:50.452Z,1.37
2023-04-14T17:45:22.860Z,1.27
2023-04-14T17:47:52.210Z,1.73
2023-04-14T17:50:22.323Z,1.47
2023-04-14T17:52:50.961Z,1.47
2023-04-14T17:55:19.339Z,1.43
2023-04-14T17:57:47.529Z,1.17
2023-04-14T18:00:16.855Z,1.30
2023-04-14T18:02:45.246Z,1.20
2023-04-14T18:05:13.824Z,1.10
2023-04-14T18:07:44.583Z,1.20
2023-04-14T18:10:13.241Z,1.00
2023-04-14T18:12:41.756Z,1.10
2023-04-14T18:15:15.113Z,0.90
2023-04-14T18:17:43.565Z,0.97
2023-04-14T18:20:13.651Z,0.70
2023-04-14T18:22:43.118Z,1.10
2023-04-14T18:25:12.736Z,0.80
2023-04-14T18:30:12.661Z,1.00
2023-04-14T18:32:41.280Z,0.93
2023-04-14T18:35:09.848Z,1.17
2023-04-14T18:37:38.892Z,1.00
2023-04-14T18:40:07.644Z,1.10
2023-04-14T18:42:37.314Z,1.07
2023-04-14T18:45:05.792Z,1.40
2023-04-14T18:47:34.138Z,1.17
2023-04-14T18:50:02.508Z,1.20
2023-04-14T18:52:30.898Z,1.03
2023-04-14T18:54:59.110Z,1.70
2023-04-14T18:57:28.892Z,1.30
2023-04-14T18:59:58.505Z,1.40
2023-04-14T19:02:27.984Z,1.20
2023-04-14T19:04:56.486Z,1.17
2023-04-14T19:07:24.841Z,1.10
2023-04-14T19:09:53.380Z,1.13
2023-04-14T19:12:28.094Z,1.40
2023-04-14T19:14:58.575Z,1.67
2023-04-14T19:17:27.328Z,1.60
2023-04-14T19:19:55.890Z,1.10
2023-04-14T19:22:24.916Z,1.37
2023-04-14T19:24:53.445Z,1.17
2023-04-14T19:27:21.745Z,1.30
2023-04-14T19:29:49.950Z,1.37
2023-04-14T19:32:19.655Z,1.30
2023-04-14T19:34:48.190Z,1.50
2023-04-14T19:37:16.521Z,1.27
2023-04-14T19:39:45.287Z,1.30
2023-04-14T19:42:13.531Z,1.40
2023-04-14T19:44:41.747Z,1.13
2023-04-14T19:47:10.092Z,1.20
2023-04-14T19:49:39.693Z,1.30
2023-04-14T19:52:08.596Z,1.47
2023-04-14T19:54:37.770Z,1.40
2023-04-14T19:57:06.557Z,1.20
2023-04-14T19:59:34.743Z,1.50
2023-04-14T20:02:05.429Z,1.70
2023-04-14T20:04:33.684Z,1.60
2023-04-14T20:07:03.339Z,1.60
2023-04-14T20:09:31.517Z,1.83
2023-04-14T20:12:00.327Z,1.50
2023-04-14T20:14:29.066Z,1.60
2023-04-14T20:16:57.370Z,1.77
2023-04-14T20:19:25.571Z,1.10
2023-04-14T20:21:53.707Z,1.20
2023-04-14T20:24:23.225Z,1.43
2023-04-14T20:26:51.361Z,1.20
2023-04-14T20:29:19.564Z,1.40
2023-04-14T20:31:48.336Z,1.60
2023-04-14T20:34:16.586Z,1.53
2023-04-14T20:36:44.955Z,1.37
2023-04-14T20:39:13.308Z,1.40
2023-04-14T20:41:42.817Z,1.63
2023-04-14T20:44:10.991Z,1.37
2023-04-14T20:46:39.170Z,1.30
2023-04-14T20:49:07.385Z,1.20
2023-04-14T20:51:36.942Z,1.33
2023-04-14T20:54:05.429Z,1.20
2023-04-14T20:56:34.009Z,1.50
2023-04-14T20:59:03.665Z,1.50
2023-04-14T21:01:32.533Z,1.90
2023-04-14T21:04:00.837Z,1.70
2023-04-14T21:06:31.707Z,2.10
2023-04-14T21:09:01.570Z,2.40
2023-04-14T21:11:30.032Z,2.90
2023-04-14T21:15:25.558Z,2.10
2023-04-14T21:16:47.786Z,2.60
2023-04-14T21:19:16.240Z,1.93
2023-04-14T21:21:44.407Z,2.07
2023-04-14T21:24:12.573Z,1.40
2023-04-14T21:26:40.929Z,1.60
2023-04-14T21:29:09.316Z,2.00
2023-04-14T21:31:37.700Z,1.43
2023-04-14T21:34:07.260Z,1.80
2023-04-14T21:36:35.579Z,1.60
2023-04-14T21:39:04.068Z,1.80
2023-04-14T21:41:32.823Z,1.50
2023-04-14T21:44:01.530Z,1.83
2023-04-14T21:46:30.444Z,1.80
2023-04-14T21:48:58.602Z,1.90
2023-04-14T21:51:28.123Z,1.90
2023-04-14T21:53:56.306Z,1.80
2023-04-14T21:56:24.468Z,1.80
2023-04-14T21:58:52.667Z,1.77
2023-04-14T22:01:20.899Z,1.77
2023-04-14T22:03:49.175Z,2.10
2023-04-14T22:06:19.135Z,1.70
2023-04-14T22:08:48.688Z,1.80
2023-04-14T22:11:16.976Z,1.60
2023-04-14T22:13:45.267Z,2.07
2023-04-14T22:16:13.462Z,2.00
2023-04-14T22:18:42.072Z,1.40
2023-04-14T22:21:12.023Z,1.60
2023-04-14T22:23:40.488Z,1.80
2023-04-14T22:26:10.084Z,1.57
2023-04-14T22:28:38.264Z,1.50
2023-04-14T22:31:06.751Z,1.60
2023-04-14T22:33:35.246Z,1.30
2023-04-14T22:36:05.540Z,1.20
2023-04-14T22:38:33.911Z,1.70
2023-04-14T22:41:02.449Z,1.50
2023-04-14T22:43:32.071Z,1.70
2023-04-14T22:46:00.337Z,1.40
2023-04-14T22:48:28.504Z,1.30
2023-04-14T22:50:56.717Z,1.80
2023-04-14T22:53:24.887Z,1.40
2023-04-14T22:55:53.155Z,1.60
2023-04-14T22:58:21.926Z,1.50
2023-04-14T23:00:51.758Z,1.47
2023-04-14T23:03:20.087Z,1.50
2023-04-14T23:05:48.749Z,1.43
2023-04-14T23:08:16.894Z,1.37
2023-04-14T23:10:45.076Z,1.50
2023-04-14T23:13:13.355Z,1.70
2023-04-14T23:15:41.646Z,1.50
2023-04-14T23:18:11.238Z,1.50
2023-04-14T23:20:39.637Z,1.47
2023-04-14T23:23:11.961Z,1.50
2023-04-14T23:25:40.224Z,1.40
2023-04-14T23:28:09.124Z,1.30
2023-04-14T23:30:37.778Z,1.40
2023-04-14T23:33:06.659Z,1.30
2023-04-14T23:35:36.800Z,1.80
2023-04-14T23:38:05.002Z,1.60
2023-04-14T23:40:33.725Z,1.70
2023-04-14T23:43:02.051Z,1.50
2023-04-14T23:45:36.634Z,1.70
2023-04-14T23:48:04.834Z,1.97
2023-04-14T23:51:00.141Z,1.50
2023-04-14T23:53:22.725Z,1.67
2023-04-14T23:55:51.390Z,1.67
2023-04-14T23:58:26.430Z,1.50
